createdAt,value
2022-11-05T00:00:20.777Z,19.60
2022-11-05T00:04:15.777Z,19.60
2022-11-05T00:08:06.044Z,19.90
2022-11-05T00:11:57.920Z,19.90
2022-11-05T00:15:44.929Z,21.00
2022-11-05T00:19:13.924Z,21.10
2022-11-05T00:23:04.848Z,20.00
2022-11-05T00:26:34.181Z,19.70
2022-11-05T00:30:03.051Z,19.40
2022-11-05T00:33:29.904Z,20.10
2022-11-05T00:36:57.229Z,19.70
2022-11-05T00:40:24.447Z,19.70
2022-11-05T00:44:11.659Z,17.30
2022-11-05T00:47:58.388Z,17.70
2022-11-05T00:51:25.901Z,17.50
2022-11-05T00:54:52.544Z,16.50
2022-11-05T00:58:22.004Z,17.10
2022-11-05T01:01:49.003Z,15.70
2022-11-05T01:05:17.080Z,16.80
2022-11-05T01:08:45.969Z,16.30
2022-11-05T01:12:14.388Z,16.20
2022-11-05T01:15:42.406Z,15.30
2022-11-05T01:19:11.207Z,18.80
2022-11-05T01:22:39.020Z,17.70
2022-11-05T01:26:06.253Z,17.70
2022-11-05T01:29:35.588Z,17.90
2022-11-05T01:33:08.466Z,18.40
2022-11-05T01:36:35.811Z,19.90
2022-11-05T01:40:03.298Z,18.70
2022-11-05T01:43:50.009Z,18.90
2022-11-05T01:47:27.568Z,18.80
2022-11-05T01:51:00.720Z,18.00
2022-11-05T01:54:33.444Z,17.50
2022-11-05T01:58:02.611Z,17.80
2022-11-05T02:01:30.571Z,16.70
2022-11-05T02:05:01.473Z,17.90
2022-11-05T02:08:44.095Z,17.60
2022-11-05T02:12:12.379Z,16.50
2022-11-05T02:15:49.179Z,16.30
2022-11-05T02:19:49.893Z,16.80
2022-11-05T02:23:51.704Z,17.50
2022-11-05T02:27:32.666Z,17.40
2022-11-05T02:31:06.390Z,17.40
2022-11-05T02:34:43.877Z,17.80
2022-11-05T02:38:15.906Z,18.90
2022-11-05T02:41:50.623Z,18.80
2022-11-05T02:45:33.978Z,19.80
2022-11-05T02:49:11.940Z,18.80
2022-11-05T02:52:48.242Z,18.10
2022-11-05T02:56:24.039Z,17.90
2022-11-05T02:59:50.896Z,17.00
2022-11-05T03:03:23.985Z,17.10
2022-11-05T03:07:26.606Z,18.10
2022-11-05T03:10:59.613Z,17.00
2022-11-05T03:14:36.027Z,17.90
2022-11-05T03:18:12.499Z,17.40
2022-11-05T03:21:46.679Z,17.80
2022-11-05T03:25:17.765Z,19.30
2022-11-05T03:28:49.015Z,19.70
2022-11-05T03:32:17.501Z,19.70
2022-11-05T03:35:48.130Z,20.00
2022-11-05T03:39:20.008Z,19.70
2022-11-05T03:42:51.350Z,19.80
2022-11-05T03:46:23.023Z,21.40
2022-11-05T03:49:57.242Z,19.00
2022-11-05T03:53:29.596Z,20.10
2022-11-05T03:57:05.809Z,19.80
2022-11-05T04:00:32.789Z,19.50
2022-11-05T04:03:59.288Z,19.40
2022-11-05T04:07:43.925Z,19.10
2022-11-05T04:11:31.122Z,19.50
2022-11-05T04:14:58.859Z,18.90
2022-11-05T04:18:25.801Z,18.60
2022-11-05T04:22:10.373Z,18.10
2022-11-05T04:25:38.613Z,19.30
2022-11-05T04:29:34.787Z,19.10
2022-11-05T04:33:07.525Z,19.40
2022-11-05T04:36:34.294Z,21.30
2022-11-05T04:40:01.164Z,21.90
2022-11-05T04:43:27.973Z,21.90
2022-11-05T04:46:55.423Z,22.00
2022-11-05T04:50:22.685Z,21.10
2022-11-05T04:53:49.674Z,21.20
2022-11-05T04:57:16.470Z,22.10
2022-11-05T05:00:42.985Z,20.40
2022-11-05T05:04:09.571Z,20.50
2022-11-05T05:07:36.937Z,21.30
2022-11-05T05:11:06.803Z,20.90
2022-11-05T05:14:33.637Z,20.50
2022-11-05T05:18:00.812Z,21.20
2022-11-05T05:21:42.714Z,20.60
2022-11-05T05:25:10.114Z,21.20
2022-11-05T05:28:37.092Z,21.70
2022-11-05T05:32:03.753Z,21.30
2022-11-05T05:35:31.138Z,21.90
2022-11-05T05:38:58.359Z,21.90
2022-11-05T05:42:25.308Z,21.60
2022-11-05T05:45:52.310Z,22.20
2022-11-05T05:49:19.105Z,23.90
2022-11-05T05:52:45.754Z,22.50
2022-11-05T05:56:15.356Z,23.80
2022-11-05T05:59:41.956Z,23.00
2022-11-05T06:03:09.848Z,25.20
2022-11-05T06:06:38.288Z,23.90
2022-11-05T06:10:05.597Z,22.00
2022-11-05T06:13:34.038Z,23.20
2022-11-05T06:17:01.184Z,23.20
2022-11-05T06:20:28.165Z,21.00
2022-11-05T06:23:55.090Z,19.70
2022-11-05T06:27:22.258Z,19.50
2022-11-05T06:30:54.578Z,18.30
2022-11-05T06:34:21.540Z,18.40
2022-11-05T06:37:48.322Z,19.40
2022-11-05T06:41:15.666Z,19.30
2022-11-05T06:44:42.905Z,20.40
2022-11-05T06:48:10.043Z,23.40
2022-11-05T06:51:36.848Z,25.00
2022-11-05T06:55:03.595Z,20.80
2022-11-05T06:58:31.107Z,21.80
2022-11-05T07:01:58.601Z,21.20
2022-11-05T07:05:26.287Z,21.10
2022-11-05T07:08:52.946Z,19.70
2022-11-05T07:12:20.237Z,20.70
2022-11-05T07:15:47.254Z,20.00
2022-11-05T07:19:14.638Z,20.60
2022-11-05T07:22:41.771Z,20.20
2022-11-05T07:26:08.519Z,18.20
2022-11-05T07:29:35.530Z,17.70
2022-11-05T07:33:02.682Z,15.80
2022-11-05T07:36:29.854Z,15.90
2022-11-05T07:39:57.458Z,15.30
2022-11-05T07:43:24.515Z,13.90
2022-11-05T07:46:51.205Z,14.50
2022-11-05T07:50:23.475Z,12.80
2022-11-05T07:53:50.755Z,13.20
2022-11-05T07:57:17.754Z,12.60
2022-11-05T08:00:44.827Z,13.30
2022-11-05T08:04:13.246Z,12.90
2022-11-05T08:07:40.382Z,14.00
2022-11-05T08:11:08.833Z,13.00
2022-11-05T08:14:35.798Z,12.60
2022-11-05T08:18:03.797Z,11.80
2022-11-05T08:21:30.718Z,12.40
2022-11-05T08:25:00.343Z,11.70
2022-11-05T08:28:30.011Z,10.00
2022-11-05T08:31:59.833Z,9.30
2022-11-05T08:35:26.329Z,8.40
2022-11-05T08:38:53.152Z,6.30
2022-11-05T08:42:19.863Z,5.30
2022-11-05T08:45:46.752Z,4.50
2022-11-05T08:49:14.383Z,4.40
2022-11-05T08:52:44.225Z,4.30
2022-11-05T08:56:11.840Z,4.00
2022-11-05T08:59:38.621Z,3.70
2022-11-05T09:03:07.450Z,3.60
2022-11-05T09:06:36.407Z,3.60
2022-11-05T09:10:03.947Z,3.50
2022-11-05T09:13:31.309Z,3.60
2022-11-05T09:16:59.530Z,3.30
2022-11-05T09:20:27.251Z,3.20
2022-11-05T09:23:53.764Z,3.10
2022-11-05T09:27:21.574Z,3.30
2022-11-05T09:30:50.427Z,4.30
2022-11-05T09:34:17.770Z,3.80
2022-11-05T09:37:44.509Z,3.70
2022-11-05T09:41:20.107Z,3.50
2022-11-05T09:44:52.395Z,3.70
2022-11-05T09:48:24.622Z,3.30
2022-11-05T09:51:52.092Z,2.80
2022-11-05T09:55:28.385Z,3.90
2022-11-05T09:59:00.479Z,3.90
2022-11-05T10:02:32.303Z,2.90
2022-11-05T10:06:09.239Z,2.50
2022-11-05T10:09:43.698Z,2.40
2022-11-05T10:13:22.759Z,2.90
2022-11-05T10:16:55.509Z,2.40
2022-11-05T10:20:29.865Z,3.50
2022-11-05T10:23:57.432Z,3.10
2022-11-05T10:27:29.476Z,3.30
2022-11-05T10:31:00.932Z,2.20
2022-11-05T10:34:33.890Z,2.90
2022-11-05T10:38:01.688Z,3.00
2022-11-05T10:41:44.799Z,3.00
2022-11-05T10:45:22.088Z,3.70
2022-11-05T10:49:08.808Z,4.90
2022-11-05T10:52:39.739Z,3.00
2022-11-05T10:56:26.890Z,2.40
2022-11-05T10:59:54.390Z,3.40
2022-11-05T11:03:42.608Z,3.00
2022-11-05T11:07:23.353Z,3.10
2022-11-05T11:10:54.867Z,2.50
2022-11-05T11:14:24.763Z,3.30
2022-11-05T11:17:53.089Z,2.60
2022-11-05T11:21:23.606Z,2.80
2022-11-05T11:24:56.668Z,3.20
2022-11-05T11:28:29.810Z,3.40
2022-11-05T11:31:59.308Z,2.80
2022-11-05T11:35:27.917Z,3.00
2022-11-05T11:39:02.922Z,3.60
2022-11-05T11:42:37.438Z,3.30
2022-11-05T11:46:11.148Z,4.30
2022-11-05T11:49:47.153Z,4.10
2022-11-05T11:53:30.683Z,4.20
2022-11-05T11:57:01.399Z,3.80
2022-11-05T12:00:29.423Z,3.00
2022-11-05T12:04:01.530Z,3.30
2022-11-05T12:07:41.958Z,3.20
2022-11-05T12:11:14.705Z,3.90
2022-11-05T12:14:51.602Z,4.10
2022-11-05T12:18:28.505Z,7.30
2022-11-05T12:22:15.115Z,8.20
2022-11-05T12:25:48.504Z,6.60
2022-11-05T12:29:35.795Z,5.80
2022-11-05T12:33:23.282Z,5.60
2022-11-05T12:37:13.282Z,5.40
2022-11-05T12:40:53.467Z,5.40
2022-11-05T12:44:39.802Z,4.80
2022-11-05T12:48:30.309Z,4.50
2022-11-05T12:52:22.008Z,4.60
2022-11-05T12:55:51.578Z,4.60
2022-11-05T12:59:24.862Z,5.00
2022-11-05T13:02:58.307Z,5.60
2022-11-05T13:06:31.904Z,5.20
2022-11-05T13:10:04.946Z,4.20
2022-11-05T13:13:38.713Z,3.80
2022-11-05T13:20:39.074Z,5.60
2022-11-05T13:24:15.927Z,5.20
2022-11-05T13:27:54.159Z,4.20
2022-11-05T13:31:26.021Z,4.80
2022-11-05T13:34:56.581Z,4.00
2022-11-05T13:38:45.989Z,4.60
2022-11-05T13:42:37.729Z,4.50
2022-11-05T13:46:25.894Z,7.50
2022-11-05T13:50:19.489Z,6.40
2022-11-05T13:54:04.477Z,10.80
2022-11-05T13:57:54.224Z,12.10
2022-11-05T14:01:40.777Z,11.10
2022-11-05T14:05:10.542Z,10.60
2022-11-05T14:08:46.392Z,23.20
2022-11-05T14:12:25.836Z,14.60
2022-11-05T14:16:04.122Z,8.80
2022-11-05T14:19:38.675Z,7.00
2022-11-05T14:23:37.863Z,7.30
2022-11-05T14:27:45.076Z,8.30
2022-11-05T14:31:41.374Z,9.80
2022-11-05T14:35:40.357Z,8.20
2022-11-05T14:39:27.559Z,7.70
2022-11-05T14:43:02.076Z,8.10
2022-11-05T14:46:41.111Z,7.80
2022-11-05T14:50:17.699Z,7.50
2022-11-05T14:53:46.540Z,6.70
2022-11-05T14:57:17.791Z,6.40
2022-11-05T15:00:51.236Z,5.80
2022-11-05T15:04:30.785Z,6.50
2022-11-05T15:08:01.486Z,6.50
2022-11-05T15:11:35.033Z,6.70
2022-11-05T15:15:04.964Z,6.40
2022-11-05T15:18:35.901Z,6.10
2022-11-05T15:22:05.927Z,7.20
2022-11-05T15:25:53.688Z,9.90
2022-11-05T15:29:25.222Z,10.80
2022-11-05T15:32:52.510Z,10.90
2022-11-05T15:36:25.576Z,9.10
2022-11-05T15:39:54.803Z,6.80
2022-11-05T15:43:22.314Z,6.70
2022-11-05T15:46:49.427Z,7.40
2022-11-05T15:50:17.959Z,9.50
2022-11-05T15:54:28.917Z,8.50
2022-11-05T15:57:51.280Z,9.80
2022-11-05T16:01:29.891Z,10.20
2022-11-05T16:04:58.965Z,8.80
2022-11-05T16:08:28.726Z,7.40
2022-11-05T16:12:16.746Z,11.30
2022-11-05T16:15:57.100Z,21.10
2022-11-05T16:19:43.299Z,13.00
2022-11-05T16:23:26.513Z,8.60
2022-11-05T16:27:03.529Z,7.20
2022-11-05T16:30:32.145Z,7.30
2022-11-05T16:34:01.047Z,7.90
2022-11-05T16:37:29.799Z,8.00
2022-11-05T16:41:00.942Z,9.00
2022-11-05T16:44:27.892Z,9.00
2022-11-05T16:47:55.683Z,9.20
2022-11-05T16:51:27.230Z,10.10
2022-11-05T16:54:54.935Z,10.50
2022-11-05T16:58:24.490Z,10.40
2022-11-05T17:01:55.608Z,10.70
2022-11-05T17:05:26.727Z,10.40
2022-11-05T17:08:54.182Z,9.80
2022-11-05T17:12:21.090Z,11.30
2022-11-05T17:15:50.394Z,11.20
2022-11-05T17:19:18.843Z,13.00
2022-11-05T17:22:45.740Z,14.80
2022-11-05T17:26:15.353Z,16.10
2022-11-05T17:29:43.286Z,15.70
2022-11-05T17:33:12.445Z,15.70
2022-11-05T17:36:43.003Z,16.40
2022-11-05T17:40:14.546Z,16.00
2022-11-05T17:43:45.557Z,15.00
2022-11-05T17:47:15.159Z,12.60
2022-11-05T17:50:45.106Z,11.40
2022-11-05T17:54:12.875Z,10.00
2022-11-05T17:57:41.017Z,11.10
2022-11-05T18:01:10.694Z,10.90
2022-11-05T18:04:38.328Z,10.30
2022-11-05T18:08:06.380Z,10.30
2022-11-05T18:11:34.060Z,9.90
2022-11-05T18:15:05.828Z,10.10
2022-11-05T18:18:35.437Z,9.10
2022-11-05T18:22:04.195Z,10.20
2022-11-05T18:25:35.472Z,9.50
2022-11-05T18:29:06.658Z,9.10
2022-11-05T18:32:34.651Z,9.30
2022-11-05T18:36:05.765Z,8.60
2022-11-05T18:39:34.339Z,8.20
2022-11-05T18:43:03.646Z,8.60
2022-11-05T18:46:56.376Z,8.70
2022-11-05T18:50:20.295Z,10.90
2022-11-05T18:53:46.910Z,11.70
2022-11-05T18:57:14.255Z,11.90
2022-11-05T19:00:43.584Z,12.00
2022-11-05T19:04:11.663Z,12.20
2022-11-05T19:07:40.729Z,13.30
2022-11-05T19:11:13.830Z,14.80
2022-11-05T19:14:45.414Z,15.80
2022-11-05T19:18:12.528Z,21.60
2022-11-05T19:21:40.181Z,20.00
2022-11-05T19:25:09.821Z,49.00
2022-11-05T19:28:37.833Z,43.60
2022-11-05T19:32:07.922Z,57.10
2022-11-05T19:35:40.840Z,56.60
2022-11-05T19:39:10.620Z,59.60
2022-11-05T19:42:40.178Z,58.60
2022-11-05T19:46:11.553Z,62.10
2022-11-05T19:49:38.255Z,56.50
2022-11-05T19:53:06.943Z,55.80
2022-11-05T19:56:37.224Z,57.90
2022-11-05T20:00:04.398Z,55.10
2022-11-05T20:03:38.932Z,60.00
2022-11-05T20:07:08.233Z,55.00
2022-11-05T20:10:38.172Z,51.40
2022-11-05T20:14:09.215Z,53.20
2022-11-05T20:17:39.403Z,48.90
2022-11-05T20:21:09.291Z,42.20
2022-11-05T20:24:36.797Z,38.60
2022-11-05T20:28:03.945Z,36.60
2022-11-05T20:31:31.376Z,32.90
2022-11-05T20:35:00.267Z,32.90
2022-11-05T20:38:31.877Z,31.50
2022-11-05T20:42:03.226Z,29.30
2022-11-05T20:45:36.578Z,30.40
2022-11-05T20:52:47.164Z,29.90
2022-11-05T20:56:24.656Z,28.80
2022-11-05T21:03:50.187Z,27.50
2022-11-05T21:07:34.603Z,29.10
2022-11-05T21:11:09.909Z,26.20
2022-11-05T21:14:41.517Z,26.60
2022-11-05T21:18:09.574Z,25.00
2022-11-05T21:21:41.061Z,23.90
2022-11-05T21:25:16.077Z,22.70
2022-11-05T21:28:46.950Z,24.60
2022-11-05T21:32:22.605Z,26.00
2022-11-05T21:35:54.067Z,23.40
2022-11-05T21:39:25.309Z,24.00
2022-11-05T21:42:55.160Z,26.40
2022-11-05T21:46:26.023Z,26.40
2022-11-05T21:49:56.149Z,24.80
2022-11-05T21:53:49.749Z,26.20
2022-11-05T22:01:30.217Z,26.70
2022-11-05T22:05:03.542Z,25.20
2022-11-05T22:08:42.750Z,25.00
2022-11-05T22:16:02.273Z,29.30
2022-11-05T22:19:31.042Z,26.90
2022-11-05T22:23:03.814Z,30.50
2022-11-05T22:26:37.261Z,29.90
2022-11-05T22:30:07.919Z,28.30
2022-11-05T22:33:39.845Z,27.00
2022-11-05T22:37:12.516Z,23.90
2022-11-05T22:40:42.167Z,23.00
2022-11-05T22:44:10.843Z,22.20
2022-11-05T22:47:38.160Z,21.60
2022-11-05T22:51:12.643Z,20.00
2022-11-05T22:54:40.558Z,19.70
2022-11-05T22:58:07.710Z,18.10
2022-11-05T23:01:35.381Z,20.10
2022-11-05T23:05:02.398Z,20.30
2022-11-05T23:08:59.414Z,19.30
2022-11-05T23:12:29.493Z,20.90
2022-11-05T23:16:16.596Z,19.90
2022-11-05T23:20:02.647Z,20.30
2022-11-05T23:23:47.579Z,20.00
2022-11-05T23:27:15.041Z,20.70
2022-11-05T23:30:59.526Z,19.40
2022-11-05T23:34:29.447Z,20.40
2022-11-05T23:38:14.712Z,20.50
2022-11-05T23:41:59.349Z,19.60
2022-11-05T23:45:45.667Z,18.50
2022-11-05T23:49:12.536Z,17.50
2022-11-05T23:52:39.975Z,17.40
2022-11-05T23:56:10.629Z,18.20
2022-11-05T23:59:37.611Z,16.60
